LiveATC.Net - Listen to live air traffic control over the Internet!


ICAO: LTBA  IATA: ISL   Airport: Ataturk Airport
City: Istanbul
Country: Turkey   Continent: Europe
LTBA METAR Weather: LTBA 010720Z 15007KT 110V180 9999 FEW028 26/21 Q1014 NOSIG RMK RWY23 15007KT
LTBA Flight Activity (FlightAware)
LTBA Webcam:  (Airport Webcams) 

LTBA Gnd/Twr/App
Feed Status: UP   Listeners: 0
Listen in your browser - HTML5 player (in browser, HTML5)
Click here to listen with your own player (launches your MP3 player)
Archive Access: LTBA Gnd/Twr/App
FacilityFrequency
Istanbul Approach126.425
Istanbul Approach133.075
Istanbul Tower118.100
Istanbul Tower118.375

NOTICE

Unauthorized use prohibited. See LiveATC.net Terms of Service


Airport/ARTCC Code
Frequency Search
(e.g., 124.400, 128.75)
Site-wide search
 


Browse Feeds
Top 50 Feeds
HF Oceanic Feeds
Coverage Map
Bad Weather Areas

LiveATC FAQ
Offer LiveATC feed
Contact LiveATC.net
Press Inquiries

LiveATC on iPhone
LiveATC on Android

LiveATC Mobile
(Mobile browser)

ATC Audio Archives
Interesting Recordings

LiveATC Forums


Home Page
About LiveATC.net


Terms of Use
Privacy Policy

AIRMETs/SIGMETs

FAA Airport Status
NAS Status
Arrival Demand


Server Software By:
Icecast.org
Liquidsoap